createdAt,value
2018-08-17T00:00:13.916Z,95059.86
2018-08-17T00:02:40.555Z,95056.67
2018-08-17T00:05:07.229Z,95052.91
2018-08-17T00:07:33.842Z,95052.58
2018-08-17T00:10:00.516Z,95050.75
2018-08-17T00:12:27.185Z,95057.03
2018-08-17T00:14:53.895Z,95055.31
2018-08-17T00:17:20.558Z,95054.63
2018-08-17T00:19:47.188Z,95057.34
2018-08-17T00:22:14.888Z,95063.68
2018-08-17T00:24:41.526Z,95059.41
2018-08-17T00:27:08.159Z,95053.83
2018-08-17T00:29:34.797Z,95057.02
2018-08-17T00:32:01.433Z,95054.94
2018-08-17T00:34:28.071Z,95056.63
2018-08-17T00:36:54.708Z,95062.72
2018-08-17T00:39:21.408Z,95051.00
2018-08-17T00:41:48.034Z,95056.26
2018-08-17T00:44:14.677Z,95056.57
2018-08-17T00:46:41.324Z,95052.70
2018-08-17T00:49:08.040Z,95051.00
2018-08-17T00:51:34.707Z,95048.67
2018-08-17T00:54:01.336Z,95044.29
2018-08-17T00:56:27.971Z,95061.39
2018-08-17T00:58:54.646Z,95061.77
2018-08-17T01:01:21.349Z,95061.02
2018-08-17T01:03:47.986Z,95064.33
2018-08-17T01:06:14.625Z,95060.97
2018-08-17T01:08:41.304Z,95059.69
2018-08-17T01:11:08.044Z,95051.69
2018-08-17T01:13:34.724Z,95060.39
2018-08-17T01:16:01.408Z,95060.91
2018-08-17T01:18:28.093Z,95060.02
2018-08-17T01:20:54.732Z,95058.12
2018-08-17T01:23:21.423Z,95057.75
2018-08-17T01:25:48.064Z,95052.60
2018-08-17T01:28:14.721Z,95050.57
2018-08-17T01:30:41.351Z,95054.37
2018-08-17T01:33:08.053Z,95056.72
2018-08-17T01:35:34.687Z,95055.45
2018-08-17T01:38:01.314Z,95055.19
2018-08-17T01:40:28.003Z,95055.02
2018-08-17T01:42:54.607Z,95055.66
2018-08-17T01:45:21.243Z,95053.63
2018-08-17T01:47:47.915Z,95051.42
2018-08-17T01:50:14.551Z,95057.55
2018-08-17T01:52:41.218Z,95051.69
2018-08-17T01:55:07.860Z,95050.35
2018-08-17T01:57:34.601Z,95047.16
2018-08-17T02:00:01.246Z,95054.13
2018-08-17T02:02:27.894Z,95055.66
2018-08-17T02:04:54.539Z,95054.96
2018-08-17T02:07:21.271Z,95053.63
2018-08-17T02:09:47.911Z,95055.66
2018-08-17T02:12:14.545Z,95054.91
2018-08-17T02:14:41.287Z,95050.09
2018-08-17T02:17:07.869Z,95047.56
2018-08-17T02:19:34.510Z,95049.02
2018-08-17T02:22:01.158Z,95049.59
2018-08-17T02:24:27.894Z,95046.87
2018-08-17T02:26:54.484Z,95052.55
2018-08-17T02:29:21.127Z,95049.05
2018-08-17T02:31:47.772Z,95053.87
2018-08-17T02:34:15.501Z,95048.74
2018-08-17T02:36:41.062Z,95043.95
2018-08-17T02:39:07.719Z,95046.53
2018-08-17T02:41:34.397Z,95039.73
2018-08-17T02:44:01.041Z,95048.36
2018-08-17T02:46:27.727Z,95041.28
2018-08-17T02:48:54.408Z,95048.42
2018-08-17T02:51:21.081Z,95053.12
2018-08-17T02:53:47.770Z,95051.79
2018-08-17T02:56:14.410Z,95049.91
2018-08-17T02:58:41.050Z,95043.25
2018-08-17T03:01:07.688Z,95049.06
2018-08-17T03:03:34.380Z,95049.81
2018-08-17T03:06:01.038Z,95056.61
2018-08-17T03:08:27.677Z,95053.88
2018-08-17T03:10:54.359Z,95058.00
2018-08-17T03:13:21.042Z,95059.83
2018-08-17T03:15:47.688Z,95067.85
2018-08-17T03:18:14.321Z,95075.05
2018-08-17T03:20:40.995Z,95075.89
2018-08-17T03:23:07.670Z,95071.72
2018-08-17T03:25:34.330Z,95073.34
2018-08-17T03:28:00.961Z,95075.25
2018-08-17T03:30:27.651Z,95078.21
2018-08-17T03:32:54.312Z,95078.33
2018-08-17T03:35:20.939Z,95078.79
2018-08-17T03:37:47.579Z,95081.20
2018-08-17T03:40:14.220Z,95080.94
2018-08-17T03:42:40.860Z,95080.88
2018-08-17T03:45:07.490Z,95081.58
2018-08-17T03:47:34.178Z,95080.07
2018-08-17T03:50:00.862Z,95083.23
2018-08-17T03:52:27.559Z,95079.66
2018-08-17T03:54:54.192Z,95084.63
2018-08-17T03:57:20.902Z,95079.81
2018-08-17T03:59:47.533Z,95079.29
2018-08-17T04:02:14.168Z,95089.88
2018-08-17T04:04:40.827Z,95086.20
2018-08-17T04:07:07.464Z,95086.72
2018-08-17T04:09:34.109Z,95092.29
2018-08-17T04:12:00.741Z,95094.29
2018-08-17T04:14:27.401Z,95088.02
2018-08-17T04:16:54.071Z,95091.77
2018-08-17T04:19:20.739Z,95085.37
2018-08-17T04:21:47.367Z,95095.36
2018-08-17T04:24:14.021Z,95086.57
2018-08-17T04:26:40.693Z,95096.14
2018-08-17T04:29:07.329Z,95091.65
2018-08-17T04:31:34.021Z,95096.52
2018-08-17T04:34:00.658Z,95096.00
2018-08-17T04:36:27.307Z,95094.98
2018-08-17T04:38:53.956Z,95094.20
2018-08-17T04:41:20.645Z,95091.14
2018-08-17T04:43:47.287Z,95093.36
2018-08-17T04:46:13.960Z,95093.50
2018-08-17T04:48:40.596Z,95093.50
2018-08-17T04:51:07.275Z,95091.09
2018-08-17T04:53:33.907Z,95094.25
2018-08-17T04:56:00.573Z,95092.66
2018-08-17T04:58:27.219Z,95092.84
2018-08-17T05:00:53.850Z,95098.53
2018-08-17T05:03:21.907Z,95100.75
2018-08-17T05:05:47.164Z,95098.91
2018-08-17T05:08:13.853Z,95105.81
2018-08-17T05:10:40.524Z,95103.00
2018-08-17T05:13:07.161Z,95110.38
2018-08-17T05:15:33.851Z,95106.38
2018-08-17T05:18:00.529Z,95113.44
2018-08-17T05:20:27.252Z,95116.83
2018-08-17T05:22:53.894Z,95113.61
2018-08-17T05:25:20.580Z,95109.59
2018-08-17T05:27:47.219Z,95114.47
2018-08-17T05:30:13.908Z,95114.50
2018-08-17T05:32:40.587Z,95118.84
2018-08-17T05:35:07.233Z,95120.66
2018-08-17T05:37:33.967Z,95123.31
2018-08-17T05:40:00.613Z,95114.95
2018-08-17T05:42:27.302Z,95112.52
2018-08-17T05:44:53.967Z,95116.64
2018-08-17T05:47:20.585Z,95116.77
2018-08-17T05:49:47.241Z,95117.16
2018-08-17T05:52:13.932Z,95118.66
2018-08-17T05:54:40.572Z,95119.34
2018-08-17T05:57:07.247Z,95135.00
2018-08-17T05:59:33.966Z,95120.41
2018-08-17T06:02:00.607Z,95129.13
2018-08-17T06:04:27.259Z,95126.47
2018-08-17T06:06:54.018Z,95121.38
2018-08-17T06:09:20.675Z,95124.03
2018-08-17T06:11:47.530Z,95120.16
2018-08-17T06:14:14.021Z,95118.23
2018-08-17T06:16:40.705Z,95124.56
2018-08-17T06:19:07.392Z,95123.59
2018-08-17T06:21:33.973Z,95125.96
2018-08-17T06:24:00.665Z,95120.89
2018-08-17T06:26:27.394Z,95118.38
2018-08-17T06:28:54.070Z,95119.72
2018-08-17T06:31:20.727Z,95118.11
2018-08-17T06:33:47.405Z,95114.73
2018-08-17T06:36:14.067Z,95123.98
2018-08-17T06:38:40.681Z,95121.36
2018-08-17T06:41:07.367Z,95119.25
2018-08-17T06:43:34.492Z,95119.50
2018-08-17T06:46:01.128Z,95115.99
2018-08-17T06:48:27.808Z,95126.84
2018-08-17T06:50:54.835Z,95125.84
2018-08-17T06:53:21.491Z,95122.66
2018-08-17T06:55:48.124Z,95124.22
2018-08-17T06:58:14.845Z,95120.06
2018-08-17T07:00:41.506Z,95125.70
2018-08-17T07:03:08.157Z,95131.55
2018-08-17T07:05:34.933Z,95134.16
2018-08-17T07:08:01.567Z,95140.65
2018-08-17T07:10:28.222Z,95130.28
2018-08-17T07:12:54.905Z,95140.73
2018-08-17T07:15:21.586Z,95138.89
2018-08-17T07:17:48.218Z,95136.86
2018-08-17T07:20:14.922Z,95129.17
2018-08-17T07:22:41.552Z,95132.72
2018-08-17T07:25:08.191Z,95139.20
2018-08-17T07:27:34.896Z,95136.02
2018-08-17T07:30:01.521Z,95129.93
2018-08-17T07:32:28.233Z,95145.23
2018-08-17T07:34:54.840Z,95142.02
2018-08-17T07:37:21.479Z,95142.75
2018-08-17T07:39:48.138Z,95144.00
2018-08-17T07:42:14.778Z,95145.73
2018-08-17T07:44:41.478Z,95149.50
2018-08-17T07:47:08.137Z,95143.32
2018-08-17T07:49:34.875Z,95153.47
2018-08-17T07:52:01.607Z,95143.20
2018-08-17T07:54:28.208Z,95144.77
2018-08-17T07:56:54.843Z,95141.76
2018-08-17T07:59:21.549Z,95136.86
2018-08-17T08:01:48.226Z,95120.52
2018-08-17T08:04:14.881Z,95138.96
2018-08-17T08:06:41.544Z,95145.80
2018-08-17T08:09:08.354Z,95142.45
2018-08-17T08:11:34.995Z,95140.29
2018-08-17T08:14:01.626Z,95137.79
2018-08-17T08:16:28.344Z,95136.97
2018-08-17T08:18:55.041Z,95128.86
2018-08-17T08:21:21.722Z,95126.23
2018-08-17T08:23:48.415Z,95119.55
2018-08-17T08:26:15.130Z,95114.88
2018-08-17T08:28:41.784Z,95111.30
2018-08-17T08:31:08.482Z,95113.20
2018-08-17T08:33:35.218Z,95111.67
2018-08-17T08:36:01.836Z,95114.58
2018-08-17T08:38:28.469Z,95110.98
2018-08-17T08:40:55.176Z,95109.30
2018-08-17T08:43:21.867Z,95103.35
2018-08-17T08:45:48.522Z,95109.44
2018-08-17T08:48:15.174Z,95106.16
2018-08-17T08:50:41.866Z,95101.16
2018-08-17T08:53:08.514Z,95104.56
2018-08-17T08:55:35.241Z,95097.73
2018-08-17T08:58:01.885Z,95097.83
2018-08-17T09:00:28.520Z,95102.75
2018-08-17T09:02:55.296Z,95102.08
2018-08-17T09:05:22.052Z,95099.66
2018-08-17T09:07:48.682Z,95097.92
2018-08-17T09:10:15.484Z,95094.93
2018-08-17T09:12:42.181Z,95094.44
2018-08-17T09:15:08.819Z,95094.51
2018-08-17T09:17:35.513Z,95090.43
2018-08-17T09:20:02.153Z,95094.52
2018-08-17T09:22:28.799Z,95099.81
2018-08-17T09:24:55.439Z,95086.34
2018-08-17T09:27:22.119Z,95089.95
2018-08-17T09:29:48.764Z,95086.70
2018-08-17T09:32:15.636Z,95087.02
2018-08-17T09:34:42.271Z,95076.52
2018-08-17T09:37:08.905Z,95082.16
2018-08-17T09:39:35.592Z,95076.95
2018-08-17T09:42:02.213Z,95076.60
2018-08-17T09:44:28.838Z,95081.77
2018-08-17T09:46:55.479Z,95065.47
2018-08-17T09:49:22.206Z,95076.52
2018-08-17T09:51:48.871Z,95073.95
2018-08-17T09:54:15.572Z,95071.22
2018-08-17T09:56:42.212Z,95069.57
2018-08-17T09:59:08.869Z,95067.89
2018-08-17T10:01:35.515Z,95073.03
2018-08-17T10:04:02.185Z,95070.88
2018-08-17T10:06:28.809Z,95062.09
2018-08-17T10:08:55.469Z,95061.12
2018-08-17T10:11:22.100Z,95058.77
2018-08-17T10:13:48.745Z,95059.86
2018-08-17T10:16:15.474Z,95053.23
2018-08-17T10:18:42.166Z,95045.47
2018-08-17T10:21:09.001Z,95047.88
2018-08-17T10:23:35.467Z,95054.14
2018-08-17T10:26:02.197Z,95046.30
2018-08-17T10:28:28.795Z,95044.00
2018-08-17T10:30:55.445Z,95045.59
2018-08-17T10:33:22.109Z,95042.91
2018-08-17T10:35:48.725Z,95036.45
2018-08-17T10:38:16.593Z,95034.15
2018-08-17T10:40:43.328Z,95028.19
2018-08-17T10:43:09.923Z,95030.05
2018-08-17T10:45:36.594Z,95026.46
2018-08-17T10:48:03.227Z,95023.19
2018-08-17T10:50:29.905Z,95026.28
2018-08-17T10:52:56.518Z,95029.41
2018-08-17T10:55:23.181Z,95027.74
2018-08-17T10:57:49.815Z,95029.98
2018-08-17T11:00:16.466Z,95027.28
2018-08-17T11:02:43.123Z,95021.52
2018-08-17T11:05:09.915Z,95019.41
2018-08-17T11:07:38.951Z,95000.71
2018-08-17T11:10:05.615Z,95026.88
2018-08-17T11:12:32.270Z,95019.38
2018-08-17T11:14:58.955Z,95017.52
2018-08-17T11:17:25.589Z,95015.72
2018-08-17T11:19:52.246Z,95015.34
2018-08-17T11:22:18.944Z,95023.03
2018-08-17T11:24:45.580Z,95006.56
2018-08-17T11:27:14.881Z,95021.52
2018-08-17T11:29:41.615Z,95011.27
2018-08-17T11:32:10.460Z,95006.86
2018-08-17T11:34:37.106Z,94998.07
2018-08-17T11:37:03.797Z,94997.31
2018-08-17T11:39:30.440Z,95010.44
2018-08-17T11:41:57.238Z,95018.09
2018-08-17T11:44:23.896Z,95002.10
2018-08-17T11:46:50.541Z,95007.13
2018-08-17T11:49:17.186Z,95014.44
2018-08-17T11:51:43.839Z,95017.11
2018-08-17T11:54:10.514Z,95016.36
2018-08-17T11:56:37.448Z,94999.09
2018-08-17T11:59:04.060Z,95008.70
2018-08-17T12:01:30.752Z,95015.68
2018-08-17T12:03:57.412Z,95008.97
2018-08-17T12:06:24.066Z,95008.52
2018-08-17T12:08:50.867Z,95005.46
2018-08-17T12:11:17.533Z,94999.05
2018-08-17T12:13:44.161Z,94992.91
2018-08-17T12:16:10.806Z,94990.76
2018-08-17T12:18:37.481Z,94985.02
2018-08-17T12:21:04.159Z,94976.24
2018-08-17T12:23:30.787Z,94974.58
2018-08-17T12:25:57.501Z,94976.98
2018-08-17T12:28:24.275Z,94972.95
2018-08-17T12:30:51.277Z,94969.41
2018-08-17T12:33:17.901Z,94971.48
2018-08-17T12:35:44.556Z,94969.38
2018-08-17T12:38:11.224Z,94966.50
2018-08-17T12:40:37.840Z,94965.55
2018-08-17T12:43:04.513Z,94969.41
2018-08-17T12:45:31.162Z,94957.01
2018-08-17T12:47:58.916Z,94972.95
2018-08-17T12:50:25.654Z,94964.99
2018-08-17T12:52:52.332Z,94967.63
2018-08-17T12:55:18.982Z,94987.47
2018-08-17T12:57:45.632Z,94994.91
2018-08-17T13:00:12.300Z,94995.95
2018-08-17T13:02:38.986Z,94999.84
2018-08-17T13:05:05.629Z,94995.09
2018-08-17T13:07:32.265Z,95015.98
2018-08-17T13:09:58.911Z,95013.38
2018-08-17T13:12:25.633Z,95025.83
2018-08-17T13:14:52.247Z,95025.75
2018-08-17T13:17:18.985Z,95041.25
2018-08-17T13:19:45.613Z,95039.44
2018-08-17T13:22:12.251Z,95038.77
2018-08-17T13:24:38.897Z,95047.84
2018-08-17T13:27:05.530Z,95035.78
2018-08-17T13:29:32.177Z,95055.77
2018-08-17T13:31:58.806Z,95062.98
2018-08-17T13:34:25.523Z,95073.42
2018-08-17T13:36:52.289Z,95071.26
2018-08-17T13:39:18.999Z,95078.14
2018-08-17T13:41:45.676Z,95074.69
2018-08-17T13:44:12.377Z,95078.70
2018-08-17T13:46:39.036Z,95089.45
2018-08-17T13:49:05.812Z,95085.56
2018-08-17T13:51:32.487Z,95088.39
2018-08-17T13:53:59.092Z,95090.14
2018-08-17T13:56:25.738Z,95086.61
2018-08-17T13:58:52.378Z,95082.37
2018-08-17T14:01:19.096Z,95076.70
2018-08-17T14:03:45.705Z,95075.70
2018-08-17T14:06:12.422Z,95071.62
2018-08-17T14:08:39.029Z,95065.94
2018-08-17T14:11:05.834Z,95050.49
2018-08-17T14:13:32.660Z,95046.94
2018-08-17T14:15:59.257Z,95043.56
2018-08-17T14:18:26.016Z,95052.64
2018-08-17T14:20:52.709Z,95042.83
2018-08-17T14:23:19.310Z,95043.13
2018-08-17T14:25:45.980Z,95043.58
2018-08-17T14:28:12.597Z,95029.92
2018-08-17T14:30:39.244Z,95035.67
2018-08-17T14:33:05.884Z,95040.08
2018-08-17T14:35:32.526Z,95051.02
2018-08-17T14:37:59.208Z,95046.72
2018-08-17T14:40:25.972Z,95037.48
2018-08-17T14:42:52.502Z,95028.35
2018-08-17T14:45:19.188Z,95032.95
2018-08-17T14:47:45.833Z,95040.76
2018-08-17T14:50:12.515Z,95036.92
2018-08-17T14:52:39.195Z,95034.69
2018-08-17T14:55:06.032Z,95027.26
2018-08-17T14:57:32.711Z,95026.09
2018-08-17T14:59:59.367Z,95026.28
2018-08-17T15:02:26.027Z,95026.73
2018-08-17T15:04:52.663Z,95031.34
2018-08-17T15:07:19.424Z,95035.67
2018-08-17T15:09:46.064Z,95035.17
2018-08-17T15:12:12.706Z,95031.63
2018-08-17T15:14:39.366Z,95030.53
2018-08-17T15:17:06.015Z,95031.81
2018-08-17T15:19:32.696Z,95027.94
2018-08-17T15:21:59.342Z,95025.11
2018-08-17T15:24:25.990Z,95023.91
2018-08-17T15:26:52.627Z,95030.70
2018-08-17T15:29:19.307Z,95026.84
2018-08-17T15:31:45.977Z,95026.20
2018-08-17T15:34:12.590Z,95016.39
2018-08-17T15:36:39.221Z,95012.62
2018-08-17T15:39:05.861Z,95003.36
2018-08-17T15:41:32.499Z,95000.57
2018-08-17T15:43:59.135Z,94995.67
2018-08-17T15:46:25.770Z,94992.06
2018-08-17T15:48:52.512Z,94995.38
2018-08-17T15:51:19.152Z,94997.52
2018-08-17T15:53:45.789Z,95007.43
2018-08-17T15:56:12.524Z,95013.12
2018-08-17T15:58:39.159Z,95009.73
2018-08-17T16:01:05.896Z,95005.18
2018-08-17T16:03:32.433Z,95008.80
2018-08-17T16:05:59.075Z,95011.48
2018-08-17T16:08:25.797Z,95008.56
2018-08-17T16:10:52.338Z,95010.73
2018-08-17T16:13:18.973Z,95010.83
2018-08-17T16:15:45.654Z,95011.91
2018-08-17T16:18:12.318Z,95015.63
2018-08-17T16:20:38.947Z,95025.89
2018-08-17T16:23:05.797Z,95020.30
2018-08-17T16:25:32.438Z,95026.83
2018-08-17T16:27:59.099Z,95023.02
2018-08-17T16:30:25.753Z,95019.80
2018-08-17T16:32:52.469Z,95019.95
2018-08-17T16:35:19.069Z,95014.86
2018-08-17T16:37:45.705Z,95017.38
2018-08-17T16:40:12.336Z,95022.05
2018-08-17T16:42:38.976Z,95025.50
2018-08-17T16:45:05.654Z,95033.80
2018-08-17T16:47:32.287Z,95033.98
2018-08-17T16:49:58.923Z,95030.38
2018-08-17T16:52:25.595Z,95037.88
2018-08-17T16:54:52.264Z,95036.78
2018-08-17T16:57:18.905Z,95040.11
2018-08-17T16:59:45.663Z,95049.24
2018-08-17T17:02:12.295Z,95048.44
2018-08-17T17:04:39.022Z,95048.19
2018-08-17T17:07:05.578Z,95042.34
2018-08-17T17:09:32.299Z,95049.37
2018-08-17T17:11:58.930Z,95043.55
2018-08-17T17:14:25.567Z,95046.71
2018-08-17T17:16:52.207Z,95052.27
2018-08-17T17:19:18.844Z,95052.34
2018-08-17T17:21:45.480Z,95052.29
2018-08-17T17:24:12.118Z,95045.98
2018-08-17T17:26:38.758Z,95045.17
2018-08-17T17:29:05.394Z,95053.64
2018-08-17T17:31:32.040Z,95055.16
2018-08-17T17:33:58.670Z,95055.72
2018-08-17T17:36:25.355Z,95055.27
2018-08-17T17:38:52.014Z,95056.93
2018-08-17T17:41:20.299Z,95063.58
2018-08-17T17:43:45.354Z,95065.55
2018-08-17T17:46:12.028Z,95066.44
2018-08-17T17:48:38.705Z,95070.56
2018-08-17T17:51:05.345Z,95068.68
2018-08-17T17:53:31.985Z,95074.19
2018-08-17T17:55:58.629Z,95080.04
2018-08-17T17:58:25.269Z,95074.45
2018-08-17T18:00:51.958Z,95087.13
2018-08-17T18:03:18.594Z,95085.89
2018-08-17T18:05:45.243Z,95097.33
2018-08-17T18:08:11.872Z,95097.81
2018-08-17T18:10:38.512Z,95097.63
2018-08-17T18:13:05.193Z,95104.77
2018-08-17T18:15:31.817Z,95102.23
2018-08-17T18:17:58.487Z,95106.42
2018-08-17T18:20:25.092Z,95108.00
2018-08-17T18:22:51.730Z,95105.85
2018-08-17T18:25:18.443Z,95103.55
2018-08-17T18:27:45.078Z,95104.56
2018-08-17T18:30:11.707Z,95106.73
2018-08-17T18:32:38.362Z,95112.53
2018-08-17T18:35:05.043Z,95116.47
2018-08-17T18:37:31.655Z,95113.97
2018-08-17T18:39:58.292Z,95119.52
2018-08-17T18:42:24.939Z,95118.80
2018-08-17T18:44:51.581Z,95122.50
2018-08-17T18:47:18.244Z,95127.47
2018-08-17T18:49:44.885Z,95131.48
2018-08-17T18:52:11.521Z,95135.17
2018-08-17T18:54:38.161Z,95130.53
2018-08-17T18:57:04.811Z,95134.30
2018-08-17T18:59:31.440Z,95142.63
2018-08-17T19:01:58.086Z,95133.69
2018-08-17T19:04:24.714Z,95133.69
2018-08-17T19:06:51.390Z,95137.38
2018-08-17T19:09:18.020Z,95143.98
2018-08-17T19:11:44.661Z,95133.00
2018-08-17T19:14:11.304Z,95137.77
2018-08-17T19:16:37.941Z,95139.34
2018-08-17T19:19:04.628Z,95144.05
2018-08-17T19:21:31.267Z,95140.82
2018-08-17T19:23:57.948Z,95144.17
2018-08-17T19:26:24.584Z,95144.05
2018-08-17T19:28:51.259Z,95147.23
2018-08-17T19:31:17.893Z,95140.36
2018-08-17T19:33:44.585Z,95144.46
2018-08-17T19:36:11.217Z,95139.14
2018-08-17T19:38:37.843Z,95144.72
2018-08-17T19:41:04.480Z,95140.16
2018-08-17T19:43:31.168Z,95134.84
2018-08-17T19:45:57.947Z,95141.44
2018-08-17T19:48:24.447Z,95137.22
2018-08-17T19:50:51.124Z,95128.16
2018-08-17T19:53:17.759Z,95134.84
2018-08-17T19:55:44.396Z,95129.44
2018-08-17T19:58:11.090Z,95133.31
2018-08-17T20:00:37.720Z,95138.26
2018-08-17T20:03:04.366Z,95137.06
2018-08-17T20:05:30.961Z,95139.20
2018-08-17T20:07:57.647Z,95137.97
2018-08-17T20:10:24.288Z,95137.77
2018-08-17T20:12:50.982Z,95148.03
2018-08-17T20:15:17.734Z,95143.61
2018-08-17T20:17:44.330Z,95148.55
2018-08-17T20:20:10.969Z,95159.72
2018-08-17T20:22:37.612Z,95160.25
2018-08-17T20:25:04.289Z,95165.30
2018-08-17T20:27:30.914Z,95166.58
2018-08-17T20:29:57.559Z,95163.04
2018-08-17T20:32:24.209Z,95166.01
2018-08-17T20:34:50.849Z,95161.63
2018-08-17T20:37:17.487Z,95160.58
2018-08-17T20:39:44.146Z,95163.55
2018-08-17T20:42:10.793Z,95163.28
2018-08-17T20:44:37.466Z,95165.47
2018-08-17T20:47:04.106Z,95161.09
2018-08-17T20:49:30.785Z,95158.73
2018-08-17T20:51:57.417Z,95165.48
2018-08-17T20:54:24.041Z,95161.36
2018-08-17T20:56:50.680Z,95155.08
2018-08-17T20:59:17.312Z,95153.80
2018-08-17T21:01:43.997Z,95149.23
2018-08-17T21:04:10.633Z,95149.50
2018-08-17T21:06:37.341Z,95148.17
2018-08-17T21:09:03.978Z,95151.07
2018-08-17T21:11:30.690Z,95161.86
2018-08-17T21:13:57.283Z,95167.97
2018-08-17T21:16:23.923Z,95186.16
2018-08-17T21:18:50.644Z,95182.67
2018-08-17T21:21:17.352Z,95182.03
2018-08-17T21:23:43.957Z,95172.07
2018-08-17T21:26:10.597Z,95179.48
2018-08-17T21:28:37.229Z,95179.16
2018-08-17T21:31:03.907Z,95185.18
2018-08-17T21:33:30.544Z,95184.25
2018-08-17T21:35:57.198Z,95175.41
2018-08-17T21:38:23.858Z,95169.88
2018-08-17T21:40:50.526Z,95163.88
2018-08-17T21:43:17.176Z,95174.28
2018-08-17T21:45:43.821Z,95175.80
2018-08-17T21:48:10.500Z,95173.41
2018-08-17T21:50:37.149Z,95173.03
2018-08-17T21:53:03.830Z,95171.55
2018-08-17T21:55:30.520Z,95167.90
2018-08-17T21:57:57.164Z,95154.85
2018-08-17T22:00:23.796Z,95157.64
2018-08-17T22:02:50.441Z,95159.92
2018-08-17T22:05:17.127Z,95148.88
2018-08-17T22:07:43.765Z,95145.97
2018-08-17T22:10:10.396Z,95140.51
2018-08-17T22:12:37.047Z,95149.22
2018-08-17T22:15:03.666Z,95142.69
2018-08-17T22:17:30.336Z,95141.73
2018-08-17T22:19:56.962Z,95141.85
2018-08-17T22:22:23.639Z,95143.02
2018-08-17T22:24:50.389Z,95138.13
2018-08-17T22:27:17.045Z,95138.77
2018-08-17T22:29:43.680Z,95141.25
2018-08-17T22:32:10.311Z,95140.61
2018-08-17T22:34:36.951Z,95148.13
2018-08-17T22:37:03.588Z,95145.69
2018-08-17T22:39:30.219Z,95144.59
2018-08-17T22:41:57.000Z,95142.70
2018-08-17T22:44:23.495Z,95143.98
2018-08-17T22:46:50.133Z,95135.99
2018-08-17T22:49:16.772Z,95140.30
2018-08-17T22:51:43.416Z,95151.13
2018-08-17T22:54:10.075Z,95151.13
2018-08-17T22:56:36.712Z,95158.05
2018-08-17T22:59:03.401Z,95157.09
2018-08-17T23:01:30.074Z,95162.17
2018-08-17T23:03:56.712Z,95155.15
2018-08-17T23:06:23.468Z,95151.83
2018-08-17T23:08:50.072Z,95155.76
2018-08-17T23:11:16.728Z,95157.03
2018-08-17T23:13:43.377Z,95152.36
2018-08-17T23:16:10.020Z,95155.15
2018-08-17T23:18:36.651Z,95152.91
2018-08-17T23:21:04.589Z,95159.92
2018-08-17T23:23:29.929Z,95152.69
2018-08-17T23:25:56.622Z,95159.54
2018-08-17T23:28:23.313Z,95150.83
2018-08-17T23:30:49.951Z,95155.27
2018-08-17T23:33:16.632Z,95153.77
2018-08-17T23:35:43.271Z,95147.80
2018-08-17T23:38:09.908Z,95151.50
2018-08-17T23:40:36.553Z,95146.64
2018-08-17T23:43:03.239Z,95153.06
2018-08-17T23:45:29.880Z,95152.31
2018-08-17T23:47:56.529Z,95157.62
2018-08-17T23:50:23.166Z,95161.81
2018-08-17T23:52:49.850Z,95159.92
2018-08-17T23:55:16.494Z,95162.25
2018-08-17T23:57:43.179Z,95152.11
